Meiyo — JNQN — position and weather

sailwx.info

Track history (hours):
 
Tides and Currents Weather Stations Pressure Air Temp Water Temp Dewpoint Dewpoint Depression Visibility Wind Speed Wind Dir Waves Ship Positions

Oceanographic research ship Meiyo (Japan)

Detailed information on ship capabilities available from University of Delaware's Ocean Information Center.

Last reported at 2018-Dec-13 15:27 UTC. Time now 2018-Dec-13 15:57 UTC.
Position N 34°32' E 135°17'.

Length 60 m; draft 3.5 m.

Type: Other ship. MMSI: 431100381.

Date/timePositionNaut miles runAvg speedWind from/ knotsBaromVisibWave heightAir tempDewpointWater temp
2018-Dec-13 15:27N 34°32' E 135°17'0 0.0
2018-Dec-13 14:51N 34°32' E 135°17'0 0.0
2018-Dec-13 14:27N 34°32' E 135°17'0 0.0
2018-Dec-13 13:51N 34°32' E 135°17'0 0.0
2018-Dec-13 13:21N 34°32' E 135°17'0 0.0
2018-Dec-13 12:51N 34°32' E 135°17'0 0.0
2018-Dec-13 12:30N 34°32' E 135°17'0 0.0
2018-Dec-13 11:57N 34°32' E 135°17'0 0.0
2018-Dec-13 11:21N 34°32' E 135°17'0 0.0
2018-Dec-13 10:57N 34°32' E 135°17'0 0.0
2018-Dec-13 10:27N 34°32' E 135°17'0 0.0
2018-Dec-13 09:57N 34°32' E 135°17'0 0.0
2018-Dec-13 09:27N 34°32' E 135°17'0 0.0
2018-Dec-13 08:57N 34°32' E 135°17'0 0.0
2018-Dec-13 08:27N 34°32' E 135°17'0 0.0
2018-Dec-13 07:57N 34°32' E 135°17'0 0.0
2018-Dec-13 07:21N 34°32' E 135°17'0 0.0
2018-Dec-13 06:51N 34°32' E 135°17'0 0.2
2018-Dec-13 06:30N 34°32' E 135°17'3 5.2
2018-Dec-13 06:00N 34°34' E 135°15'0 0.5
2018-Dec-13 05:30N 34°33' E 135°15'1 2.9
2018-Dec-13 05:00N 34°32' E 135°14'4 7.7
2018-Dec-13 04:30N 34°28' E 135°13'4 8.0
2018-Dec-13 04:00N 34°27' E 135°09'2 3.6
2018-Dec-13 03:30N 34°26' E 135°07'0 0.9
2018-Dec-13 03:00N 34°25' E 135°07'4 7.9
2018-Dec-13 02:30N 34°23' E 135°03'1 1.3
2018-Dec-13 02:00N 34°22' E 135°02'713.3
2018-Dec-13 01:30N 34°16' E 134°59'5 9.6
2018-Dec-13 01:00N 34°11' E 134°59'4 8.6
2018-Dec-13 00:30N 34°08' E 134°56'612.6
2018-Dec-13 00:00N 34°03' E 134°51'22 9.6
2018-Dec-12 21:44N 33°42' E 134°57'  
Track history (hours):
 
Tides and Currents Weather Stations Pressure Air Temp Water Temp Dewpoint Dewpoint Depression Visibility Wind Speed Wind Dir Waves Ship Positions

Oceanographic research ship Meiyo (Japan)

Detailed information on ship capabilities available from University of Delaware's Ocean Information Center.

Last reported at 2018-Dec-13 15:27 UTC. Time now 2018-Dec-13 15:57 UTC.
Position N 34°32' E 135°17'.

Length 60 m; draft 3.5 m.

Type: Other ship. MMSI: 431100381.

Date/timePositionNaut miles runAvg speedWind from/ knotsBaromVisibWave heightAir tempDewpointWater temp
2018-Dec-13 15:27N 34°32' E 135°17'0 0.0
2018-Dec-13 14:51N 34°32' E 135°17'0 0.0
2018-Dec-13 14:27N 34°32' E 135°17'0 0.0
2018-Dec-13 13:51N 34°32' E 135°17'0 0.0
2018-Dec-13 13:21N 34°32' E 135°17'0 0.0
2018-Dec-13 12:51N 34°32' E 135°17'0 0.0
2018-Dec-13 12:30N 34°32' E 135°17'0 0.0
2018-Dec-13 11:57N 34°32' E 135°17'0 0.0
2018-Dec-13 11:21N 34°32' E 135°17'0 0.0
2018-Dec-13 10:57N 34°32' E 135°17'0 0.0
2018-Dec-13 10:27N 34°32' E 135°17'0 0.0
2018-Dec-13 09:57N 34°32' E 135°17'0 0.0
2018-Dec-13 09:27N 34°32' E 135°17'0 0.0
2018-Dec-13 08:57N 34°32' E 135°17'0 0.0
2018-Dec-13 08:27N 34°32' E 135°17'0 0.0
2018-Dec-13 07:57N 34°32' E 135°17'0 0.0
2018-Dec-13 07:21N 34°32' E 135°17'0 0.0
2018-Dec-13 06:51N 34°32' E 135°17'0 0.2
2018-Dec-13 06:30N 34°32' E 135°17'3 5.2
2018-Dec-13 06:00N 34°34' E 135°15'0 0.5
2018-Dec-13 05:30N 34°33' E 135°15'1 2.9
2018-Dec-13 05:00N 34°32' E 135°14'4 7.7
2018-Dec-13 04:30N 34°28' E 135°13'4 8.0
2018-Dec-13 04:00N 34°27' E 135°09'2 3.6
2018-Dec-13 03:30N 34°26' E 135°07'0 0.9
2018-Dec-13 03:00N 34°25' E 135°07'4 7.9
2018-Dec-13 02:30N 34°23' E 135°03'1 1.3
2018-Dec-13 02:00N 34°22' E 135°02'713.3
2018-Dec-13 01:30N 34°16' E 134°59'5 9.6
2018-Dec-13 01:00N 34°11' E 134°59'4 8.6
2018-Dec-13 00:30N 34°08' E 134°56'612.6
2018-Dec-13 00:00N 34°03' E 134°51'22 9.6
2018-Dec-12 21:44N 33°42' E 134°57'  

Dump ship's entire track history